Cantil, CA (93519)

5:33 PM PDT on September 23, 2014 (GMT -0700)
Red Rock Canyon | Change Station
CLOSE
Current Station
Personal Weather Station
Location: Cantil, CA
Elevation: 2592 ft
Nearby Weather Stations

Elev 2592 ft 35.37 °N, 117.99 °W | Updated 1 minute ago

Clear
Clear
92.4 °F
Feels Like 88 °F
N
5.0
Wind Variable Wind from SE
Gusts 13.0 mph

Today
High -- | Low -- °F
--% Chance of Precip.
Yesterday
High -- | Low -- °F
Precip. -- in
6:40 AM 6:47 PM
Waning Crescent, 0% visible
Pressure 29.97 in
Visibility 10.0 miles
Clouds Clear
Heat Index 88 °F
Dew Point 12 °F
Humidity 5%
Rainfall 0.00 in
Snow Depth 0 in , 2 in
UV 1 out of 12
Pollen 6.80 out of 12
Ozone Good
Flu Activity Not available.
METAR KMHV 240015Z AUTO 21011KT 10SM CLR 32/M08 A2997 RMK AO1

More Conditions Fewer Conditions

Pressure 29.97 in
Visibility 10.0 miles
Clouds Clear
Heat Index 88 °F
Dew Point 12 °F
Humidity 5%
Rainfall 0.00 in
Snow Depth 0 in , 2 in
UV 1 out of 12
Pollen 6.80 out of 12
Ozone Good
Flu Activity Not available.
METAR KMHV 240015Z AUTO 21011KT 10SM CLR 32/M08 A2997 RMK AO1

More Conditions Fewer Conditions

10-Day Weather Forecast

Almanac

Astronomy

Sep. 23, 2014 Rise Set
Actual Time 6:40 AM PDT 6:47 PM PDT
Civil Twilight 6:15 AM PDT 7:12 PM PDT
Nautical Twilight 5:45 AM PDT 7:41 PM PDT
Astronomical Twilight 5:15 AM PDT 8:11 PM PDT
Moon 6:09 AM PDT (9/23) 6:29 PM PDT (9/23)
Length of Visible Light 12h 57m
Length of Day
12h 06m
Tomorrow will be 2m 12s shorter.
Waning Crescent, 0% of the Moon is Illuminated
Today
Waning Crescent
Sep 24
New
Oct 1
First Quarter
Oct 8
Full
Oct 15
Last Quarter

Today's Extremes

State Highs State Lows

Community

WunderPhotos

Upload Photos

1,755,832 photos uploaded!

WunderBlogs® & News

Nearby

Air Quality

  Air Quality AQ Index Pollutant
Yesterday Good
OZONE
Current Good
OZONE
Wednesday Good
PM10
Wednesday Good
OZONE
Wednesday Good
CO
Wednesday Good
NO2

Snow Depth

Station Depth Elevation
Summit Meadow 0 in 9122 ft
CSS Lab 2 in 6900 ft
Adin Mountain 0 in 6200 ft

Earthquake Activity

City Distance Mag. Time & Date
Running Springs, California 88 miles 2.5 7:26 AM PDT
2014-09-22
Minimum magnitude displayed is 2.5.

Coastal Water Temperatures

Place Temperature
No Stations Reporting

Nearby Weather Stations